createdAt,value
2022-07-30T00:00:44.599Z,101314.19
2022-07-30T00:03:11.095Z,101316.03
2022-07-30T00:05:37.585Z,101313.34
2022-07-30T00:08:04.267Z,101309.81
2022-07-30T00:10:30.837Z,101306.25
2022-07-30T00:12:57.315Z,101307.13
2022-07-30T00:15:24.521Z,101305.28
2022-07-30T00:17:51.109Z,101309.81
2022-07-30T00:20:18.525Z,101315.22
2022-07-30T00:22:45.175Z,101314.34
2022-07-30T00:25:11.673Z,101308.41
2022-07-30T00:27:40.125Z,101302.72
2022-07-30T00:30:19.126Z,101307.28
2022-07-30T00:32:45.562Z,101312.66
2022-07-30T00:35:12.075Z,101276.88
2022-07-30T00:37:38.530Z,101285.81
2022-07-30T00:40:06.953Z,101297.81
2022-07-30T00:42:40.676Z,101293.66
2022-07-30T00:45:08.164Z,101298.38
2022-07-30T00:47:34.666Z,101294.66
2022-07-30T00:50:04.183Z,101292.13
2022-07-30T00:52:34.051Z,101287.59
2022-07-30T00:55:00.938Z,101283.22
2022-07-30T00:57:28.498Z,101278.66
2022-07-30T00:59:55.305Z,101279.66
2022-07-30T01:02:22.256Z,101283.22
2022-07-30T01:04:48.962Z,101279.78
2022-07-30T01:07:15.564Z,101289.56
2022-07-30T01:09:42.099Z,101282.34
2022-07-30T01:12:19.607Z,101286.03
2022-07-30T01:14:46.156Z,101277.81
2022-07-30T01:17:12.602Z,101276.13
2022-07-30T01:19:52.147Z,101281.50
2022-07-30T01:22:24.699Z,101277.94
2022-07-30T01:25:06.267Z,101273.56
2022-07-30T01:27:44.224Z,101260.06
2022-07-30T01:30:12.382Z,101275.44
2022-07-30T01:32:44.153Z,101277.25
2022-07-30T01:35:12.796Z,101257.88
2022-07-30T01:37:40.273Z,101272.06
2022-07-30T01:40:07.487Z,101267.50
2022-07-30T01:42:36.192Z,101275.59
2022-07-30T01:45:04.366Z,101268.34
2022-07-30T01:47:34.323Z,101271.03
2022-07-30T01:50:02.737Z,101271.22
2022-07-30T01:52:32.759Z,101272.06
2022-07-30T01:55:01.075Z,101268.53
2022-07-30T01:57:28.352Z,101265.31
2022-07-30T02:00:01.540Z,101269.38
2022-07-30T02:02:28.208Z,101264.28
2022-07-30T02:04:54.756Z,101267.66
2022-07-30T02:07:45.927Z,101273.91
2022-07-30T02:10:19.259Z,101266.97
2022-07-30T02:12:53.793Z,101259.25
2022-07-30T02:15:20.188Z,101268.00
2022-07-30T02:18:23.876Z,101270.69
2022-07-30T02:21:07.611Z,101276.06
2022-07-30T02:23:44.106Z,101271.53
2022-07-30T02:26:18.564Z,101271.69
2022-07-30T02:28:49.619Z,101265.47
2022-07-30T02:31:20.897Z,101241.69
2022-07-30T02:33:50.018Z,101260.91
2022-07-30T02:36:19.205Z,101260.06
2022-07-30T02:38:47.285Z,101253.84
2022-07-30T02:41:15.359Z,101242.06
2022-07-30T02:43:42.716Z,101253.03
2022-07-30T02:46:11.405Z,101243.44
2022-07-30T02:48:39.974Z,101250.47
2022-07-30T02:51:08.547Z,101225.19
2022-07-30T02:53:37.479Z,101254.00
2022-07-30T02:56:08.067Z,101232.78
2022-07-30T02:58:37.853Z,101236.00
2022-07-30T03:01:05.496Z,101240.34
2022-07-30T03:03:32.769Z,101248.81
2022-07-30T03:06:00.407Z,101243.44
2022-07-30T03:08:27.971Z,101229.41
2022-07-30T03:10:56.192Z,101246.13
2022-07-30T03:13:23.750Z,101224.84
2022-07-30T03:15:52.007Z,101230.09
2022-07-30T03:18:20.323Z,101232.44
2022-07-30T03:20:50.517Z,101244.56
2022-07-30T03:23:19.659Z,101237.38
2022-07-30T03:25:52.530Z,101240.06
2022-07-30T03:28:24.087Z,101244.41
2022-07-30T03:30:52.567Z,101217.94
2022-07-30T03:33:20.159Z,101214.06
2022-07-30T03:35:48.855Z,101238.34
2022-07-30T03:38:16.126Z,101228.59
2022-07-30T03:40:43.778Z,101231.28
2022-07-30T03:43:18.305Z,101226.91
2022-07-30T03:45:58.991Z,101228.59
2022-07-30T03:48:26.172Z,101227.94
2022-07-30T03:50:54.113Z,101227.94
2022-07-30T03:53:24.940Z,101225.22
2022-07-30T03:55:53.547Z,101222.69
2022-07-30T03:58:20.305Z,101213.59
2022-07-30T04:00:48.915Z,101213.59
2022-07-30T04:03:29.098Z,101217.16
2022-07-30T04:05:55.928Z,101211.78
2022-07-30T04:08:22.915Z,101211.78
2022-07-30T04:10:50.468Z,101187.16
2022-07-30T04:13:17.690Z,101203.03
2022-07-30T04:16:37.885Z,101200.31
2022-07-30T04:18:38.657Z,101194.25
2022-07-30T04:21:17.327Z,101188.53
2022-07-30T04:24:03.772Z,101192.25
2022-07-30T04:26:34.421Z,101192.56
2022-07-30T04:29:01.857Z,101208.41
2022-07-30T04:31:29.512Z,101181.09
2022-07-30T04:34:02.762Z,101152.06
2022-07-30T04:36:33.117Z,101204.00
2022-07-30T04:39:00.763Z,101195.94
2022-07-30T04:41:27.417Z,101210.25
2022-07-30T04:43:53.902Z,101207.72
2022-07-30T04:46:24.720Z,101178.91
2022-07-30T04:48:52.005Z,101210.41
2022-07-30T04:51:24.133Z,101184.28
2022-07-30T04:53:52.353Z,101205.88
2022-07-30T04:56:21.344Z,101200.47
2022-07-30T04:58:49.047Z,101187.00
2022-07-30T05:01:21.383Z,101184.78
2022-07-30T05:03:50.004Z,101173.00
2022-07-30T05:06:17.455Z,101203.19
2022-07-30T05:08:44.703Z,101202.34
2022-07-30T05:11:13.150Z,101202.34
2022-07-30T05:13:46.380Z,101189.53
2022-07-30T05:16:13.123Z,101185.31
2022-07-30T05:18:39.739Z,101202.50
2022-07-30T05:21:06.931Z,101198.97
2022-07-30T05:23:33.831Z,101196.28
2022-07-30T05:26:00.378Z,101192.56
2022-07-30T05:28:26.848Z,101197.94
2022-07-30T05:30:54.514Z,101175.88
2022-07-30T05:33:40.994Z,101191.72
2022-07-30T05:36:09.537Z,101200.63
2022-07-30T05:38:36.114Z,101191.72
2022-07-30T05:41:02.558Z,101196.97
2022-07-30T05:43:29.124Z,101197.09
2022-07-30T05:45:55.622Z,101198.81
2022-07-30T05:48:22.131Z,101193.44
2022-07-30T05:50:48.538Z,101190.06
2022-07-30T05:53:15.001Z,101194.41
2022-07-30T05:55:41.483Z,101174.34
2022-07-30T05:58:07.912Z,101182.81
2022-07-30T06:00:35.616Z,101187.19
2022-07-30T06:03:02.502Z,101180.97
2022-07-30T06:05:29.015Z,101187.19
2022-07-30T06:07:55.468Z,101182.81
2022-07-30T06:10:21.918Z,101185.34
2022-07-30T06:12:48.355Z,101183.50
2022-07-30T06:15:14.983Z,101187.88
2022-07-30T06:17:51.066Z,101179.78
2022-07-30T06:20:24.780Z,101183.34
2022-07-30T06:22:51.287Z,101183.34
2022-07-30T06:25:18.705Z,101178.13
2022-07-30T06:27:45.330Z,101176.09
2022-07-30T06:30:12.101Z,101187.72
2022-07-30T06:32:38.646Z,101162.09
2022-07-30T06:35:05.733Z,101183.16
2022-07-30T06:38:00.782Z,101183.16
2022-07-30T06:40:19.196Z,101177.78
2022-07-30T06:42:45.905Z,101165.16
2022-07-30T06:45:12.329Z,101169.56
2022-07-30T06:47:38.795Z,101156.75
2022-07-30T06:50:05.834Z,101110.06
2022-07-30T06:52:32.784Z,101154.22
2022-07-30T06:54:59.218Z,101173.91
2022-07-30T06:57:25.658Z,101167.84
2022-07-30T06:59:56.304Z,101171.22
2022-07-30T07:02:23.853Z,101169.41
2022-07-30T07:04:50.312Z,101169.41
2022-07-30T07:07:31.461Z,101168.38
2022-07-30T07:10:03.983Z,101099.16
2022-07-30T07:12:30.444Z,101147.16
2022-07-30T07:14:56.934Z,101161.00
2022-07-30T07:17:26.188Z,101161.00
2022-07-30T07:20:01.770Z,101165.38
2022-07-30T07:22:29.548Z,101157.63
2022-07-30T07:24:56.105Z,101136.41
2022-07-30T07:27:22.737Z,101161.81
2022-07-30T07:30:05.780Z,101158.16
2022-07-30T07:32:34.111Z,101158.16
2022-07-30T07:35:00.956Z,101136.75
2022-07-30T07:37:27.604Z,101158.97
2022-07-30T07:39:54.092Z,101152.56
2022-07-30T07:42:20.657Z,101156.97
2022-07-30T07:44:47.141Z,101157.81
2022-07-30T07:47:13.699Z,101136.44
2022-07-30T07:49:40.193Z,101142.00
2022-07-30T07:52:07.079Z,101142.00
2022-07-30T07:54:33.580Z,101148.56
2022-07-30T07:57:02.461Z,101144.72
2022-07-30T07:59:40.331Z,101146.88
2022-07-30T08:02:08.551Z,101153.63
2022-07-30T08:04:35.932Z,101150.94
2022-07-30T08:07:03.238Z,101149.91
2022-07-30T08:09:44.060Z,101162.19
2022-07-30T08:12:12.324Z,101149.91
2022-07-30T08:14:39.083Z,101141.16
2022-07-30T08:17:06.152Z,101148.63
2022-07-30T08:19:33.167Z,101146.59
2022-07-30T08:21:59.833Z,101142.91
2022-07-30T08:24:26.866Z,101143.75
2022-07-30T08:26:53.400Z,101146.25
2022-07-30T08:29:19.858Z,101147.97
2022-07-30T08:31:46.305Z,101133.28
2022-07-30T08:34:13.561Z,101146.78
2022-07-30T08:36:40.232Z,101149.47
2022-07-30T08:39:06.699Z,101145.78
2022-07-30T08:41:33.220Z,101141.25
2022-07-30T08:44:01.578Z,101142.91
2022-07-30T08:46:30.888Z,101147.31
2022-07-30T08:48:58.106Z,101143.94
2022-07-30T08:51:25.099Z,101143.59
2022-07-30T08:53:51.683Z,101134.50
2022-07-30T08:56:18.482Z,101133.47
2022-07-30T08:58:45.856Z,101142.41
2022-07-30T09:01:12.292Z,101117.31
2022-07-30T09:03:44.520Z,101124.56
2022-07-30T09:06:11.743Z,101144.94
2022-07-30T09:08:38.244Z,101140.41
2022-07-30T09:11:04.707Z,101142.94
2022-07-30T09:13:37.642Z,101142.94
2022-07-30T09:16:06.173Z,101140.41
2022-07-30T09:18:34.195Z,101138.38
2022-07-30T09:21:02.166Z,101142.59
2022-07-30T09:23:28.960Z,101129.47
2022-07-30T09:25:59.896Z,101131.81
2022-07-30T09:28:31.263Z,101132.69
2022-07-30T09:30:58.424Z,101063.41
2022-07-30T09:33:38.756Z,101136.88
2022-07-30T09:36:11.632Z,101135.19
2022-07-30T09:38:47.830Z,101136.88
2022-07-30T09:41:36.345Z,101137.72
2022-07-30T09:44:03.968Z,101136.53
2022-07-30T09:46:43.435Z,101134.69
2022-07-30T09:49:29.204Z,101133.00
2022-07-30T09:51:57.505Z,101136.22
2022-07-30T09:54:52.837Z,101144.13
2022-07-30T09:57:25.850Z,101115.47
2022-07-30T09:59:55.626Z,101152.03
2022-07-30T10:02:32.172Z,101147.47
2022-07-30T10:05:10.157Z,101147.31
2022-07-30T10:07:55.819Z,101152.72
2022-07-30T10:10:34.245Z,101147.31
2022-07-30T10:13:04.827Z,101148.16
2022-07-30T10:15:34.832Z,101148.84
2022-07-30T10:18:06.184Z,101146.16
2022-07-30T10:20:33.793Z,101123.91
2022-07-30T10:23:09.022Z,101139.75
2022-07-30T10:25:37.032Z,101125.25
2022-07-30T10:28:17.770Z,101143.13
2022-07-30T10:30:45.214Z,101137.75
2022-07-30T10:33:34.912Z,101142.25
2022-07-30T10:35:59.147Z,101146.00
2022-07-30T10:38:30.362Z,101151.03
2022-07-30T10:41:27.514Z,101143.44
2022-07-30T10:44:35.155Z,101154.41
2022-07-30T10:47:13.980Z,101158.13
2022-07-30T10:49:43.134Z,101154.56
2022-07-30T10:52:10.727Z,101158.94
2022-07-30T10:54:39.618Z,101154.41
2022-07-30T10:57:11.683Z,101160.63
2022-07-30T10:59:58.564Z,101164.19
2022-07-30T11:02:31.307Z,101158.78
2022-07-30T11:05:43.871Z,101153.41
2022-07-30T11:08:36.190Z,101160.47
2022-07-30T11:11:19.722Z,101156.94
2022-07-30T11:13:54.159Z,101155.91
2022-07-30T11:16:48.208Z,101155.91
2022-07-30T11:19:55.235Z,101126.81
2022-07-30T11:22:27.181Z,101159.28
2022-07-30T11:24:54.096Z,101152.06
2022-07-30T11:27:36.298Z,101144.97
2022-07-30T11:30:26.607Z,101039.88
2022-07-30T11:32:57.514Z,101133.19
2022-07-30T11:35:25.848Z,101144.81
2022-07-30T11:38:22.283Z,101142.13
2022-07-30T11:40:49.093Z,101139.44
2022-07-30T11:43:36.025Z,101117.72
2022-07-30T11:46:10.483Z,101130.00
2022-07-30T11:48:38.181Z,101136.22
2022-07-30T11:51:05.159Z,101137.88
2022-07-30T11:53:31.935Z,101129.81
2022-07-30T11:56:00.541Z,101136.91
2022-07-30T11:58:28.746Z,101133.00
2022-07-30T12:01:01.747Z,101127.47
2022-07-30T12:03:31.755Z,101130.88
2022-07-30T12:06:05.915Z,101132.22
2022-07-30T12:08:42.281Z,101127.81
2022-07-30T12:11:09.271Z,101130.50
2022-07-30T12:13:45.158Z,101138.44
2022-07-30T12:16:17.281Z,101128.50
2022-07-30T12:18:45.069Z,101133.06
2022-07-30T12:21:12.732Z,101133.06
2022-07-30T12:23:41.878Z,101133.06
2022-07-30T12:26:08.758Z,101014.16
2022-07-30T12:28:36.160Z,101127.66
2022-07-30T12:31:04.379Z,101113.00
2022-07-30T12:33:31.780Z,101127.00
2022-07-30T12:36:00.067Z,101137.25
2022-07-30T12:38:28.327Z,101136.41
2022-07-30T12:41:03.385Z,101133.22
2022-07-30T12:43:56.202Z,101123.25
2022-07-30T12:46:26.587Z,101134.19
2022-07-30T12:48:54.620Z,101118.88
2022-07-30T12:51:26.131Z,101122.59
2022-07-30T12:53:55.359Z,101122.59
2022-07-30T12:56:27.305Z,101120.06
2022-07-30T12:58:55.478Z,101110.09
2022-07-30T13:01:44.236Z,101107.59
2022-07-30T13:04:11.991Z,101112.16
2022-07-30T13:06:40.193Z,101093.13
2022-07-30T13:09:07.256Z,101115.81
2022-07-30T13:11:48.750Z,101115.19
2022-07-30T13:14:17.071Z,101126.13
2022-07-30T13:16:43.739Z,101119.03
2022-07-30T13:19:11.871Z,101110.28
2022-07-30T13:21:39.905Z,101111.31
2022-07-30T13:24:17.995Z,101092.13
2022-07-30T13:26:45.154Z,101106.91
2022-07-30T13:29:13.445Z,101100.00
2022-07-30T13:31:43.015Z,101103.22
2022-07-30T13:34:11.234Z,101098.00
2022-07-30T13:36:37.824Z,101084.53
2022-07-30T13:39:04.382Z,101083.69
2022-07-30T13:41:31.008Z,101078.47
2022-07-30T13:43:57.596Z,101082.84
2022-07-30T13:46:24.155Z,101059.94
2022-07-30T13:48:50.727Z,101078.28
2022-07-30T13:51:17.413Z,101070.72
2022-07-30T13:53:43.853Z,101079.13
2022-07-30T13:56:12.443Z,101080.84
2022-07-30T13:58:39.813Z,101078.13
2022-07-30T14:01:07.132Z,101086.91
2022-07-30T14:03:35.237Z,101081.50
2022-07-30T14:06:10.645Z,101077.94
2022-07-30T14:08:38.622Z,101084.19
2022-07-30T14:11:05.103Z,101080.63
2022-07-30T14:13:31.759Z,101076.13
2022-07-30T14:15:58.434Z,101040.78
2022-07-30T14:18:24.887Z,101066.84
2022-07-30T14:20:53.631Z,101066.84
2022-07-30T14:23:20.344Z,101061.47
2022-07-30T14:25:47.187Z,101060.44
2022-07-30T14:28:14.106Z,101065.66
2022-07-30T14:30:40.967Z,101057.56
2022-07-30T14:33:07.539Z,101054.72
2022-07-30T14:35:34.010Z,101052.19
2022-07-30T14:38:00.605Z,101042.59
2022-07-30T14:40:27.122Z,101060.44
2022-07-30T14:42:56.152Z,101052.00
2022-07-30T14:45:23.111Z,101022.41
2022-07-30T14:47:49.607Z,101053.56
2022-07-30T14:50:16.280Z,101054.38
2022-07-30T14:52:43.752Z,101054.38
2022-07-30T14:55:10.495Z,101059.78
2022-07-30T14:57:37.064Z,101048.16
2022-07-30T15:00:05.825Z,101039.22
2022-07-30T15:02:32.311Z,101050.50
2022-07-30T15:04:58.878Z,101047.81
2022-07-30T15:07:25.315Z,101045.94
2022-07-30T15:09:51.759Z,101044.94
2022-07-30T15:12:26.747Z,101042.25
2022-07-30T15:14:53.867Z,101049.31
2022-07-30T15:17:20.460Z,101046.63
2022-07-30T15:19:51.014Z,101039.38
2022-07-30T15:22:19.949Z,101042.72
2022-07-30T15:24:46.503Z,101034.63
2022-07-30T15:27:13.069Z,101037.16
2022-07-30T15:29:39.587Z,101033.47
2022-07-30T15:32:06.774Z,101029.75
2022-07-30T15:34:37.024Z,101027.91
2022-07-30T15:37:05.339Z,101030.44
2022-07-30T15:39:33.473Z,101014.09
2022-07-30T15:42:01.842Z,100993.75
2022-07-30T15:44:28.706Z,100996.59
2022-07-30T15:46:55.223Z,101010.66
2022-07-30T15:49:21.771Z,101018.44
2022-07-30T15:51:51.906Z,101012.00
2022-07-30T15:54:23.291Z,101005.13
2022-07-30T15:57:01.227Z,101001.91
2022-07-30T15:59:28.734Z,100992.13
2022-07-30T16:01:55.213Z,101006.94
2022-07-30T16:04:22.053Z,100997.00
2022-07-30T16:07:00.228Z,100989.91
2022-07-30T16:09:26.817Z,100997.66
2022-07-30T16:11:53.643Z,100992.44
2022-07-30T16:14:20.215Z,100987.88
2022-07-30T16:16:46.754Z,100967.53
2022-07-30T16:19:13.251Z,100992.56
2022-07-30T16:21:39.793Z,100994.28
2022-07-30T16:24:07.112Z,100990.91
2022-07-30T16:26:35.850Z,100991.75
2022-07-30T16:29:02.316Z,100987.50
2022-07-30T16:31:28.878Z,100995.41
2022-07-30T16:33:55.395Z,101003.50
2022-07-30T16:36:21.931Z,100990.53
2022-07-30T16:38:48.696Z,100992.53
2022-07-30T16:41:15.169Z,100963.97
2022-07-30T16:43:41.636Z,100961.28
2022-07-30T16:46:08.327Z,100981.63
2022-07-30T16:48:34.860Z,100990.84
2022-07-30T16:51:01.676Z,101000.28
2022-07-30T16:53:28.593Z,100972.69
2022-07-30T16:55:56.934Z,100998.09
2022-07-30T16:58:30.722Z,100998.94
2022-07-30T17:00:57.372Z,100990.00
2022-07-30T17:03:25.276Z,101002.47
2022-07-30T17:05:53.062Z,100995.25
2022-07-30T17:08:24.880Z,100990.34
2022-07-30T17:10:52.998Z,100997.06
2022-07-30T17:13:20.403Z,100991.69
2022-07-30T17:15:47.253Z,100988.16
2022-07-30T17:18:14.089Z,100984.09
2022-07-30T17:20:40.858Z,100994.19
2022-07-30T17:23:07.871Z,100991.34
2022-07-30T17:25:34.374Z,100970.97
2022-07-30T17:28:01.412Z,100986.78
2022-07-30T17:30:29.408Z,100979.22
2022-07-30T17:32:56.144Z,100982.41
2022-07-30T17:35:24.662Z,100985.13
2022-07-30T17:37:51.509Z,100991.34
2022-07-30T17:40:28.416Z,100959.03
2022-07-30T17:43:03.339Z,100962.88
2022-07-30T17:45:30.896Z,100964.91
2022-07-30T17:47:57.884Z,100982.41
2022-07-30T17:50:24.379Z,100972.31
2022-07-30T17:52:50.805Z,100984.25
2022-07-30T17:55:17.310Z,100980.72
2022-07-30T17:57:43.788Z,100986.13
2022-07-30T18:00:10.811Z,100985.13
2022-07-30T18:02:37.368Z,100984.25
2022-07-30T18:05:04.201Z,100983.41
2022-07-30T18:07:30.687Z,100969.28
2022-07-30T18:09:57.163Z,100989.63
2022-07-30T18:12:23.622Z,100994.19
2022-07-30T18:14:50.122Z,100997.03
2022-07-30T18:17:16.606Z,101003.38
2022-07-30T18:19:43.087Z,101003.22
2022-07-30T18:22:09.767Z,100989.56
2022-07-30T18:24:40.251Z,100988.91
2022-07-30T18:27:11.557Z,101001.19
2022-07-30T18:29:38.088Z,100989.44
2022-07-30T18:32:05.376Z,101009.09
2022-07-30T18:34:32.195Z,100985.38
2022-07-30T18:36:58.771Z,101001.84
2022-07-30T18:39:25.398Z,100991.44
2022-07-30T18:41:51.847Z,100997.66
2022-07-30T18:44:18.362Z,100999.69
2022-07-30T18:46:44.938Z,100998.84
2022-07-30T18:49:34.285Z,100998.66
2022-07-30T18:51:59.348Z,100994.81
2022-07-30T18:54:25.924Z,100998.00
2022-07-30T18:56:52.366Z,101004.06
2022-07-30T18:59:18.799Z,100984.75
2022-07-30T19:01:45.375Z,100986.13
2022-07-30T19:04:11.903Z,101000.88
2022-07-30T19:06:38.529Z,101005.63
2022-07-30T19:09:07.571Z,101010.19
2022-07-30T19:11:43.680Z,101013.03
2022-07-30T19:14:10.262Z,100998.94
2022-07-30T19:16:36.853Z,101007.16
2022-07-30T19:19:03.482Z,100994.88
2022-07-30T19:21:29.983Z,100994.41
2022-07-30T19:23:56.491Z,100983.13
2022-07-30T19:26:23.303Z,101012.91
2022-07-30T19:28:49.776Z,100997.94
2022-07-30T19:31:16.510Z,101010.22
2022-07-30T19:33:43.368Z,101006.38
2022-07-30T19:36:10.215Z,100999.31
2022-07-30T19:38:39.828Z,101007.38
2022-07-30T19:41:06.730Z,100939.19
2022-07-30T19:43:34.167Z,101007.22
2022-07-30T19:46:03.882Z,100882.56
2022-07-30T19:48:32.539Z,100998.34
2022-07-30T19:51:00.729Z,101003.19
2022-07-30T19:53:31.327Z,101004.19
2022-07-30T19:56:01.645Z,101003.88
2022-07-30T19:58:28.435Z,101003.59
2022-07-30T20:00:54.991Z,101016.88
2022-07-30T20:03:26.172Z,101011.53
2022-07-30T20:05:59.940Z,100986.72
2022-07-30T20:08:28.062Z,100935.25
2022-07-30T20:10:57.888Z,101023.03
2022-07-30T20:13:44.454Z,101004.91
2022-07-30T20:16:13.268Z,101027.06
2022-07-30T20:18:40.716Z,101005.34
2022-07-30T20:21:11.308Z,100985.03
2022-07-30T20:23:41.333Z,100930.59
2022-07-30T20:26:12.250Z,101025.75
2022-07-30T20:28:40.110Z,101030.28
2022-07-30T20:31:07.198Z,101033.00
2022-07-30T20:33:36.050Z,101006.22
2022-07-30T20:36:04.606Z,101023.91
2022-07-30T20:38:33.698Z,101027.75
2022-07-30T20:41:02.224Z,100852.91
2022-07-30T20:43:28.893Z,100966.56
2022-07-30T20:45:56.107Z,101023.41
2022-07-30T20:48:25.338Z,100986.19
2022-07-30T20:50:52.396Z,101010.28
2022-07-30T20:53:19.774Z,101026.94
2022-07-30T20:55:47.257Z,101026.09
2022-07-30T20:58:17.468Z,101023.75
2022-07-30T21:00:49.931Z,101011.78
2022-07-30T21:03:21.724Z,101022.72
2022-07-30T21:05:48.716Z,101023.25
2022-07-30T21:08:17.889Z,101024.06
2022-07-30T21:10:44.804Z,101032.16
2022-07-30T21:13:12.631Z,101027.59
2022-07-30T21:18:25.694Z,101031.13
2022-07-30T21:20:53.163Z,101005.56
2022-07-30T21:23:22.346Z,101032.00
2022-07-30T21:26:01.369Z,101037.38
2022-07-30T21:28:35.804Z,101032.81
2022-07-30T21:31:03.859Z,100999.81
2022-07-30T21:33:33.775Z,101010.63
2022-07-30T21:36:01.002Z,101024.75
2022-07-30T21:38:27.727Z,101012.31
2022-07-30T21:40:55.198Z,101027.44
2022-07-30T21:43:29.671Z,101005.34
2022-07-30T21:45:57.492Z,101030.13
2022-07-30T21:48:24.367Z,101020.34
2022-07-30T21:50:50.908Z,101019.34
2022-07-30T21:53:17.380Z,101010.97
2022-07-30T21:55:56.843Z,101022.03
2022-07-30T21:58:26.208Z,101003.19
2022-07-30T22:00:54.982Z,101016.66
2022-07-30T22:04:04.049Z,101012.94
2022-07-30T22:06:12.667Z,101015.63
2022-07-30T22:08:39.874Z,101018.31
2022-07-30T22:11:09.084Z,100993.44
2022-07-30T22:13:36.346Z,101011.44
2022-07-30T22:16:21.495Z,101018.31
2022-07-30T22:18:48.032Z,101020.84
2022-07-30T22:21:14.659Z,101022.03
2022-07-30T22:23:54.793Z,101016.16
2022-07-30T22:26:29.454Z,101020.03
2022-07-30T22:28:55.907Z,101009.25
2022-07-30T22:31:22.433Z,100994.78
2022-07-30T22:33:50.914Z,100997.66
2022-07-30T22:36:17.952Z,101012.25
2022-07-30T22:38:58.887Z,101021.88
2022-07-30T22:41:39.140Z,101020.84
2022-07-30T22:44:06.723Z,100936.94
2022-07-30T22:46:39.438Z,100993.94
2022-07-30T22:49:23.592Z,100994.78
2022-07-30T22:52:02.101Z,101002.53
2022-07-30T22:54:37.316Z,101020.84
2022-07-30T22:57:04.244Z,101010.06
2022-07-30T22:59:58.264Z,101002.19
2022-07-30T23:02:17.970Z,101015.47
2022-07-30T23:04:44.541Z,101010.06
2022-07-30T23:07:13.991Z,100999.66
2022-07-30T23:09:49.448Z,100980.47
2022-07-30T23:12:20.107Z,101005.53
2022-07-30T23:12:32.821Z,101029.47
2022-07-30T23:14:47.407Z,100980.16
2022-07-30T23:17:13.972Z,100977.09
2022-07-30T23:19:40.420Z,100974.41
2022-07-30T23:22:07.162Z,100991.22
2022-07-30T23:24:33.725Z,100986.03
2022-07-30T23:27:00.483Z,101010.91
2022-07-30T23:29:28.443Z,101013.59
2022-07-30T23:31:55.434Z,101008.22
2022-07-30T23:34:22.033Z,101000.13
2022-07-30T23:36:48.517Z,100986.03
2022-07-30T23:39:15.008Z,101000.19
2022-07-30T23:41:43.713Z,101002.50
2022-07-30T23:44:10.147Z,101005.88
2022-07-30T23:46:37.132Z,100996.16
2022-07-30T23:49:04.585Z,101010.91
2022-07-30T23:51:33.597Z,101021.69
2022-07-30T23:54:01.025Z,101010.06
2022-07-30T23:56:27.511Z,101016.31
2022-07-30T23:58:54.623Z,101010.06
